Time;durP1;ratioP1;P1;durP2;ratioP2;P2;SDS_P1;SDS_P2;PMS_P1;PMS_P2;Temp;Humidity;BMP_temperature;BMP_pressure;BME280_temperature;BME280_humidity;BME280_pressure;Samples;Min_cycle;Max_cycle;Signal;HPM_P1;HPM_P2
2021/12/10 00:02:15;;;;;;;125.13;47.47;;;-0.40;99.90;;;;;;5160130;28;20437;-52
2021/12/10 00:04:46;;;;;;;121.37;45.43;;;-0.40;99.90;;;;;;5163875;28;20210;-51
2021/12/10 00:07:21;;;;;;;134.83;48.93;;;-0.40;99.90;;;;;;5160459;28;20472;-50
2021/12/10 00:09:58;;;;;;;122.17;45.80;;;-0.40;99.90;;;;;;5161905;28;20547;-51
2021/12/10 00:12:38;;;;;;;136.77;48.50;;;-0.50;99.90;;;;;;5164120;28;20534;-50
2021/12/10 00:15:10;;;;;;;133.87;50.90;;;-0.50;99.90;;;;;;5159804;28;20543;-50
2021/12/10 00:17:45;;;;;;;134.93;50.70;;;-0.50;99.90;;;;;;5165763;28;20441;-51
2021/12/10 00:20:17;;;;;;;142.83;52.50;;;-0.60;99.90;;;;;;5160592;28;20551;-51
2021/12/10 00:22:57;;;;;;;159.23;56.23;;;-0.60;99.90;;;;;;5166429;28;20934;-50
2021/12/10 00:25:44;;;;;;;129.47;47.90;;;-0.60;99.90;;;;;;5156623;28;20479;-50
2021/12/10 00:28:26;;;;;;;153.07;52.43;;;-0.50;99.90;;;;;;5166195;28;20877;-51
2021/12/10 00:31:30;;;;;;;141.10;51.70;;;-0.60;99.90;;;;;;5162921;28;20456;-52
2021/12/10 00:34:23;;;;;;;159.87;54.27;;;-0.60;99.90;;;;;;5161053;28;20832;-51
2021/12/10 00:36:57;;;;;;;142.67;52.07;;;-0.60;99.90;;;;;;5175369;23;20507;-51
2021/12/10 00:39:38;;;;;;;147.30;51.80;;;-0.50;99.90;;;;;;5168999;28;20452;-53
2021/12/10 00:42:13;;;;;;;152.30;52.90;;;-0.50;99.90;;;;;;5159920;28;20431;-53
2021/12/10 00:44:45;;;;;;;154.87;53.27;;;-0.60;99.90;;;;;;5166804;28;20501;-52
2021/12/10 00:47:15;;;;;;;158.63;54.00;;;-0.60;99.90;;;;;;5158646;28;20631;-52
2021/12/10 00:49:46;;;;;;;140.03;51.33;;;-0.50;99.90;;;;;;5156292;28;21022;-51
2021/12/10 00:52:17;;;;;;;135.30;52.03;;;-0.50;99.90;;;;;;5161884;28;20188;-52
2021/12/10 00:54:48;;;;;;;142.13;50.60;;;-0.50;99.90;;;;;;5165379;28;20181;-53
2021/12/10 00:57:19;;;;;;;147.13;52.27;;;-0.50;99.90;;;;;;5161209;28;20446;-52
2021/12/10 00:59:51;;;;;;;147.03;53.00;;;-0.50;99.90;;;;;;5163253;28;20444;-52
2021/12/10 01:02:24;;;;;;;159.90;54.80;;;-0.50;99.90;;;;;;5159584;28;21006;-51
2021/12/10 01:04:58;;;;;;;147.10;50.77;;;-0.50;99.90;;;;;;5161750;28;20470;-53
2021/12/10 01:07:32;;;;;;;145.20;53.17;;;-0.50;99.90;;;;;;5161191;28;20491;-51
2021/12/10 01:10:09;;;;;;;137.77;50.03;;;-0.50;99.90;;;;;;5146958;28;20912;-49
2021/12/10 01:12:46;;;;;;;143.57;54.87;;;-0.40;99.90;;;;;;5162130;28;20964;-52
2021/12/10 01:15:49;;;;;;;133.77;51.70;;;-0.30;99.90;;;;;;5158168;28;20451;-52
2021/12/10 01:27:24;;;;;;;125.90;48.17;;;-0.30;99.90;;;;;;5160897;28;20564;-51
2021/12/10 01:29:57;;;;;;;135.53;49.60;;;-0.20;99.90;;;;;;5160465;28;20490;-52
2021/12/10 01:32:34;;;;;;;132.80;50.13;;;-0.30;99.90;;;;;;5164974;28;20467;-52
2021/12/10 01:35:07;;;;;;;146.10;51.70;;;-0.30;99.90;;;;;;5164455;28;20447;-51
2021/12/10 01:37:38;;;;;;;132.30;49.63;;;-0.30;99.90;;;;;;5155728;28;20905;-51
2021/12/10 01:40:10;;;;;;;141.40;48.43;;;-0.40;99.90;;;;;;5157828;28;20443;-52
2021/12/10 01:42:46;;;;;;;132.70;50.77;;;-0.40;99.90;;;;;;5158782;28;20189;-50
2021/12/10 01:45:27;;;;;;;128.87;47.60;;;-0.40;99.90;;;;;;5160961;28;20488;-52
2021/12/10 01:48:04;;;;;;;136.10;48.80;;;-0.40;99.90;;;;;;5174500;28;20968;-50
2021/12/10 01:50:35;;;;;;;131.27;47.47;;;-0.40;99.90;;;;;;5158977;28;20429;-51
2021/12/10 01:53:12;;;;;;;115.90;49.77;;;-0.30;99.90;;;;;;5157285;28;20436;-52
2021/12/10 01:55:46;;;;;;;120.00;45.70;;;-0.30;99.90;;;;;;5154387;28;20572;-50
2021/12/10 01:58:20;;;;;;;129.17;47.10;;;-0.20;99.90;;;;;;5159122;28;20452;-52
2021/12/10 02:01:03;;;;;;;111.67;47.13;;;-0.20;99.90;;;;;;5159117;28;20931;-51
2021/12/10 02:03:35;;;;;;;126.37;46.80;;;-0.20;99.90;;;;;;5156440;28;20545;-52
2021/12/10 02:06:06;;;;;;;117.90;48.47;;;-0.20;99.90;;;;;;5155917;28;20485;-52
2021/12/10 02:08:38;;;;;;;119.33;47.53;;;-0.20;99.90;;;;;;5155771;28;20526;-51
2021/12/10 02:11:08;;;;;;;126.67;48.77;;;-0.20;99.90;;;;;;5163847;28;20470;-51
2021/12/10 02:13:39;;;;;;;123.33;47.30;;;-0.20;99.90;;;;;;5162220;28;20473;-51
2021/12/10 02:16:10;;;;;;;142.43;49.90;;;-0.30;99.90;;;;;;5165304;28;20205;-52
2021/12/10 02:18:41;;;;;;;125.00;47.33;;;-0.30;99.90;;;;;;5158838;28;20183;-51
2021/12/10 02:21:13;;;;;;;126.17;47.73;;;-0.30;99.90;;;;;;5164029;28;20480;-51
2021/12/10 02:23:57;;;;;;;125.90;46.93;;;-0.30;99.90;;;;;;5168775;28;20422;-51
2021/12/10 02:26:56;;;;;;;125.70;47.47;;;-0.30;99.90;;;;;;5167778;28;20475;-52
2021/12/10 02:29:33;;;;;;;127.63;46.60;;;-0.30;99.90;;;;;;5163301;28;20551;-52
2021/12/10 02:32:08;;;;;;;124.27;48.77;;;-0.30;99.90;;;;;;5169640;28;20450;-52
2021/12/10 02:34:40;;;;;;;131.20;48.70;;;-0.40;99.90;;;;;;5168868;28;20445;-50
2021/12/10 02:37:11;;;;;;;126.57;48.67;;;-0.40;99.90;;;;;;5169193;28;20493;-51
2021/12/10 02:39:42;;;;;;;125.47;47.67;;;-0.40;99.90;;;;;;5167196;28;20474;-52
2021/12/10 02:42:12;;;;;;;139.33;50.83;;;-0.30;99.90;;;;;;5167328;28;20236;-52
2021/12/10 02:44:44;;;;;;;123.23;49.07;;;-0.30;99.90;;;;;;5169720;28;20260;-51
2021/12/10 02:47:16;;;;;;;123.03;47.90;;;-0.30;99.90;;;;;;5169089;28;20214;-52
2021/12/10 02:49:47;;;;;;;145.93;49.90;;;-0.20;99.90;;;;;;5167743;28;20446;-50
2021/12/10 02:52:20;;;;;;;137.10;50.40;;;-0.30;99.90;;;;;;5167562;28;20449;-52
2021/12/10 02:54:50;;;;;;;151.97;52.17;;;-0.30;99.90;;;;;;5168621;28;20586;-51
2021/12/10 02:57:21;;;;;;;135.07;52.27;;;-0.30;99.90;;;;;;5152101;28;20451;-51
2021/12/10 02:59:52;;;;;;;128.37;46.13;;;-0.30;99.90;;;;;;5160459;28;20183;-51
2021/12/10 03:02:24;;;;;;;139.10;51.43;;;-0.20;99.90;;;;;;5168215;28;20687;-51
2021/12/10 03:04:55;;;;;;;122.17;48.60;;;-0.10;99.90;;;;;;5157769;28;20588;-51
2021/12/10 03:07:26;;;;;;;133.17;50.57;;;0.00;99.90;;;;;;5161953;28;20467;-52
2021/12/10 03:09:57;;;;;;;134.03;49.73;;;0.00;99.90;;;;;;5166693;28;20208;-51
2021/12/10 03:12:27;;;;;;;139.90;50.87;;;0.00;99.90;;;;;;5167997;28;20424;-51
2021/12/10 03:14:58;;;;;;;131.47;51.60;;;-0.10;99.90;;;;;;5156591;28;20437;-52
2021/12/10 03:17:31;;;;;;;139.67;53.40;;;-0.20;99.90;;;;;;5180257;28;20189;-52
2021/12/10 03:20:07;;;;;;;148.87;53.93;;;-0.20;99.90;;;;;;5164236;28;20530;-51
2021/12/10 03:22:38;;;;;;;130.23;53.23;;;-0.20;99.90;;;;;;5161734;28;20523;-51
2021/12/10 03:25:11;;;;;;;144.67;54.53;;;-0.20;99.90;;;;;;5162493;28;20466;-52
2021/12/10 03:27:43;;;;;;;142.00;53.50;;;-0.20;99.90;;;;;;5160975;28;20465;-50
2021/12/10 03:30:18;;;;;;;139.53;51.90;;;-0.30;99.90;;;;;;5166103;28;20490;-51
2021/12/10 03:32:50;;;;;;;144.70;50.80;;;-0.30;99.90;;;;;;5166985;28;20493;-51
2021/12/10 03:35:31;;;;;;;141.77;54.53;;;-0.30;99.90;;;;;;5166654;28;20467;-50
2021/12/10 03:38:05;;;;;;;154.97;50.47;;;-0.30;99.90;;;;;;5167365;28;20448;-50
2021/12/10 03:40:36;;;;;;;146.10;56.63;;;-0.30;99.90;;;;;;5159487;28;20486;-52
2021/12/10 03:43:08;;;;;;;143.37;53.40;;;-0.40;99.90;;;;;;5166306;28;20806;-51
2021/12/10 03:45:44;;;;;;;149.50;54.13;;;-0.40;99.90;;;;;;5165176;28;20550;-50
2021/12/10 03:48:20;;;;;;;133.03;52.10;;;-0.40;99.90;;;;;;5164733;28;20551;-51
2021/12/10 03:50:51;;;;;;;144.23;54.10;;;-0.30;99.90;;;;;;5150282;28;20462;-52
2021/12/10 03:53:23;;;;;;;133.80;51.30;;;-0.30;99.90;;;;;;5165472;28;20440;-52
2021/12/10 03:55:59;;;;;;;161.67;54.73;;;-0.30;99.90;;;;;;5164398;28;20209;-51
2021/12/10 03:58:29;;;;;;;130.13;49.87;;;-0.30;99.90;;;;;;5161074;28;20444;-51
2021/12/10 04:01:02;;;;;;;125.53;49.50;;;-0.20;99.90;;;;;;5162298;28;20462;-52
2021/12/10 04:03:33;;;;;;;122.77;46.67;;;-0.20;99.90;;;;;;5161473;28;20718;-51
2021/12/10 04:06:04;;;;;;;128.10;45.97;;;-0.20;99.90;;;;;;5157967;28;20528;-52
2021/12/10 04:08:35;;;;;;;124.33;48.67;;;-0.30;99.90;;;;;;5155523;28;20816;-53
2021/12/10 04:11:07;;;;;;;128.20;47.87;;;-0.30;99.90;;;;;;5166628;28;20519;-52
2021/12/10 04:13:37;;;;;;;131.17;49.10;;;-0.20;99.90;;;;;;5155108;28;20185;-51
2021/12/10 04:16:08;;;;;;;114.10;44.40;;;-0.30;99.90;;;;;;5158788;28;20502;-52
2021/12/10 04:18:39;;;;;;;139.60;47.77;;;-0.30;99.90;;;;;;5159273;28;20195;-51
2021/12/10 04:21:12;;;;;;;132.70;48.77;;;-0.30;99.90;;;;;;5159950;28;20652;-51
2021/12/10 04:23:43;;;;;;;115.03;45.50;;;-0.30;99.90;;;;;;5166234;28;20441;-51
2021/12/10 04:26:19;;;;;;;134.67;50.10;;;-0.40;99.90;;;;;;5152535;28;20445;-51
2021/12/10 04:28:50;;;;;;;135.57;50.10;;;-0.40;99.90;;;;;;5162887;28;20571;-51
2021/12/10 04:31:21;;;;;;;134.20;50.63;;;-0.40;99.90;;;;;;5159688;28;20451;-51
2021/12/10 04:33:52;;;;;;;169.33;56.63;;;-0.40;99.90;;;;;;5159966;28;20440;-51
2021/12/10 04:36:23;;;;;;;140.60;54.40;;;-0.40;99.90;;;;;;5157334;28;20476;-52
2021/12/10 04:38:53;;;;;;;160.10;55.60;;;-0.40;99.90;;;;;;5162196;28;20193;-51
2021/12/10 04:41:25;;;;;;;143.67;54.77;;;-0.50;99.90;;;;;;5161649;28;20193;-52
2021/12/10 04:43:55;;;;;;;148.53;54.63;;;-0.50;99.90;;;;;;5161689;28;20200;-52
2021/12/10 04:46:27;;;;;;;162.23;57.00;;;-0.50;99.90;;;;;;5165641;28;20463;-52
2021/12/10 04:49:00;;;;;;;144.77;57.17;;;-0.50;99.90;;;;;;5160403;28;20228;-51
2021/12/10 04:51:39;;;;;;;171.50;59.57;;;-0.50;99.90;;;;;;5161890;28;20448;-51
2021/12/10 04:54:10;;;;;;;172.57;59.50;;;-0.50;99.90;;;;;;5166966;28;20528;-52
2021/12/10 04:56:41;;;;;;;170.93;57.67;;;-0.50;99.90;;;;;;5159268;28;20546;-51
2021/12/10 04:59:16;;;;;;;172.13;58.93;;;-0.50;99.90;;;;;;5158797;28;20515;-51
2021/12/10 05:01:47;;;;;;;154.07;57.10;;;-0.50;99.90;;;;;;5138524;28;20439;-51
2021/12/10 05:04:18;;;;;;;175.97;58.33;;;-0.50;99.90;;;;;;5158553;28;20466;-52
2021/12/10 05:06:49;;;;;;;149.67;53.80;;;-0.50;99.90;;;;;;5165152;28;21090;-51
2021/12/10 05:09:21;;;;;;;140.53;54.57;;;-0.40;99.90;;;;;;5162127;28;20523;-52
2021/12/10 05:11:53;;;;;;;174.13;60.07;;;-0.50;99.90;;;;;;5165484;28;20279;-51
2021/12/10 05:14:24;;;;;;;168.43;56.87;;;-0.50;99.90;;;;;;5165745;28;20424;-50
2021/12/10 05:16:58;;;;;;;158.67;54.87;;;-0.50;99.90;;;;;;5166060;28;20896;-50
2021/12/10 05:19:30;;;;;;;152.10;54.50;;;-0.40;99.90;;;;;;5162550;28;20836;-50
2021/12/10 05:22:04;;;;;;;160.40;56.10;;;-0.40;99.90;;;;;;5157736;28;20447;-51
2021/12/10 05:24:35;;;;;;;163.87;56.80;;;-0.40;99.90;;;;;;5149883;28;20540;-51
2021/12/10 05:27:06;;;;;;;133.70;51.93;;;-0.40;99.90;;;;;;5162239;28;20577;-50
2021/12/10 05:29:36;;;;;;;151.47;51.93;;;-0.30;99.90;;;;;;5163598;28;20174;-51
2021/12/10 05:32:08;;;;;;;151.50;55.70;;;-0.20;99.90;;;;;;5166147;28;20190;-51
2021/12/10 05:34:40;;;;;;;148.20;56.10;;;-0.20;99.90;;;;;;5164945;28;20184;-51
2021/12/10 05:37:12;;;;;;;146.90;53.40;;;-0.20;99.90;;;;;;5163787;28;20542;-51
2021/12/10 05:39:43;;;;;;;133.80;52.13;;;-0.20;99.90;;;;;;5165943;28;20506;-52
2021/12/10 05:42:15;;;;;;;140.10;52.87;;;-0.10;99.90;;;;;;5149229;28;21178;-51
2021/12/10 05:44:46;;;;;;;133.40;48.70;;;-0.10;99.90;;;;;;5164911;28;21003;-51
2021/12/10 05:47:16;;;;;;;127.40;51.60;;;-0.20;99.90;;;;;;5160284;28;20458;-50
2021/12/10 05:49:47;;;;;;;134.10;54.30;;;-0.10;99.90;;;;;;5152945;28;20250;-51
2021/12/10 05:52:17;;;;;;;142.90;55.27;;;-0.10;99.90;;;;;;5160586;28;20200;-51
2021/12/10 05:54:50;;;;;;;122.13;48.73;;;0.00;99.90;;;;;;5152180;28;20188;-51
2021/12/10 05:57:20;;;;;;;130.87;51.13;;;-0.10;99.90;;;;;;5162565;28;20180;-51
2021/12/10 05:59:51;;;;;;;130.70;50.67;;;0.00;99.90;;;;;;5161046;28;20443;-50
2021/12/10 06:02:22;;;;;;;122.23;50.70;;;0.00;99.90;;;;;;5155956;28;20189;-51
2021/12/10 06:04:52;;;;;;;128.17;49.53;;;0.00;99.90;;;;;;5158063;28;20191;-51
2021/12/10 06:07:23;;;;;;;130.60;53.37;;;0.00;99.90;;;;;;5161279;28;20196;-50
2021/12/10 06:09:53;;;;;;;118.00;48.60;;;0.00;99.90;;;;;;5163391;28;20173;-50
2021/12/10 06:12:24;;;;;;;142.40;56.00;;;0.00;99.90;;;;;;5160876;28;20231;-51
2021/12/10 06:14:54;;;;;;;144.43;54.33;;;-0.10;99.90;;;;;;5153612;28;20253;-58
2021/12/10 06:17:25;;;;;;;155.13;55.67;;;-0.10;99.90;;;;;;5158242;28;20585;-51
2021/12/10 06:19:56;;;;;;;157.57;57.63;;;-0.20;99.90;;;;;;5160643;28;20188;-53
2021/12/10 06:22:27;;;;;;;149.00;56.80;;;-0.20;99.90;;;;;;5156752;28;20630;-52
2021/12/10 06:24:57;;;;;;;161.03;55.37;;;-0.20;99.90;;;;;;5158131;28;20820;-52
2021/12/10 06:27:28;;;;;;;140.23;52.73;;;-0.20;99.90;;;;;;5160837;28;20193;-52
2021/12/10 06:30:01;;;;;;;147.43;56.40;;;-0.20;99.90;;;;;;5154839;28;20641;-52
2021/12/10 06:32:31;;;;;;;152.97;57.13;;;-0.20;99.90;;;;;;5142607;28;20273;-52
2021/12/10 06:35:03;;;;;;;161.90;58.20;;;-0.20;99.90;;;;;;5180548;22;20472;-50
2021/12/10 06:37:33;;;;;;;146.50;56.43;;;-0.10;99.90;;;;;;5134247;28;20551;-52
2021/12/10 06:40:11;;;;;;;159.10;55.47;;;-0.10;99.90;;;;;;5137266;28;20475;-48
2021/12/10 06:42:42;;;;;;;182.43;60.90;;;-0.20;99.90;;;;;;5138790;28;20193;-50
2021/12/10 06:45:16;;;;;;;164.40;59.87;;;-0.20;99.90;;;;;;5141210;28;21152;-49
2021/12/10 06:47:50;;;;;;;177.17;61.33;;;-0.20;99.90;;;;;;5135983;28;20559;-49
2021/12/10 06:50:26;;;;;;;178.60;61.40;;;-0.30;99.90;;;;;;5142661;28;20532;-53
2021/12/10 06:52:57;;;;;;;172.97;61.47;;;-0.20;99.90;;;;;;5140518;28;20451;-53
2021/12/10 06:55:30;;;;;;;185.20;60.33;;;-0.20;99.90;;;;;;5137211;28;20449;-50
2021/12/10 06:58:02;;;;;;;185.53;63.00;;;-0.20;99.90;;;;;;5139274;28;20441;-51
2021/12/10 07:00:42;;;;;;;168.67;62.27;;;-0.20;99.90;;;;;;5137548;28;20463;-52
2021/12/10 07:03:17;;;;;;;182.87;62.17;;;-0.30;99.90;;;;;;5141988;28;20488;-49
2021/12/10 07:05:49;;;;;;;180.73;59.27;;;-0.30;99.90;;;;;;5134298;28;20502;-51
2021/12/10 07:08:22;;;;;;;172.50;60.37;;;-0.30;99.90;;;;;;5113257;28;20475;-51
2021/12/10 07:10:53;;;;;;;195.30;62.80;;;-0.30;99.90;;;;;;5138772;28;20438;-50
2021/12/10 07:13:25;;;;;;;202.00;62.70;;;-0.30;99.90;;;;;;5127818;28;20441;-49
2021/12/10 07:15:56;;;;;;;183.93;62.27;;;-0.30;99.90;;;;;;5123370;28;20487;-50
2021/12/10 07:18:26;;;;;;;183.20;62.70;;;-0.30;99.90;;;;;;5123121;28;20450;-53
2021/12/10 07:20:57;;;;;;;202.73;67.07;;;-0.30;99.90;;;;;;5136199;28;20647;-52
2021/12/10 07:23:28;;;;;;;184.03;62.33;;;-0.30;99.90;;;;;;5136820;28;20193;-52
2021/12/10 07:25:58;;;;;;;193.87;67.60;;;-0.30;99.90;;;;;;5136774;28;20311;-51
2021/12/10 07:28:29;;;;;;;185.97;64.20;;;-0.30;99.90;;;;;;5139378;28;20577;-49
2021/12/10 07:31:00;;;;;;;190.80;63.07;;;-0.20;99.90;;;;;;5137331;28;20186;-50
2021/12/10 07:33:31;;;;;;;189.63;64.77;;;-0.20;99.90;;;;;;5150621;28;20193;-51
2021/12/10 07:36:03;;;;;;;191.60;63.73;;;-0.20;99.90;;;;;;5132446;28;20969;-51
2021/12/10 07:38:34;;;;;;;182.07;64.10;;;-0.20;99.90;;;;;;5135577;28;20186;-51
2021/12/10 07:41:08;;;;;;;180.83;61.80;;;-0.20;99.90;;;;;;5136719;28;20435;-51
2021/12/10 07:43:39;;;;;;;182.40;61.30;;;-0.10;99.90;;;;;;5137900;28;20447;-49
2021/12/10 07:46:12;;;;;;;154.17;58.97;;;-0.10;99.90;;;;;;5136345;28;20477;-51
2021/12/10 07:48:44;;;;;;;180.30;61.00;;;-0.10;99.90;;;;;;5137864;28;20955;-51
2021/12/10 07:51:22;;;;;;;141.47;53.87;;;-0.10;99.90;;;;;;5139193;28;20466;-50
2021/12/10 07:53:57;;;;;;;183.67;61.50;;;-0.10;99.90;;;;;;5149466;28;20886;-51
2021/12/10 07:56:30;;;;;;;172.67;63.13;;;-0.10;99.90;;;;;;5151364;28;20461;-51
2021/12/10 07:59:00;;;;;;;163.53;57.20;;;0.00;99.90;;;;;;5136379;28;20445;-51
2021/12/10 08:01:32;;;;;;;174.40;60.70;;;0.00;99.90;;;;;;5139500;28;20503;-50
2021/12/10 08:04:04;;;;;;;154.30;58.43;;;0.10;99.90;;;;;;5136841;28;20240;-50
2021/12/10 08:06:36;;;;;;;177.37;61.10;;;0.00;99.90;;;;;;5136961;28;20536;-49
2021/12/10 08:09:08;;;;;;;181.90;60.50;;;0.10;99.90;;;;;;5137790;28;20477;-51
2021/12/10 08:11:40;;;;;;;171.17;59.43;;;0.10;99.90;;;;;;5138801;28;20488;-50
2021/12/10 08:14:10;;;;;;;167.63;59.80;;;0.00;99.90;;;;;;5131522;28;20541;-50
2021/12/10 08:16:41;;;;;;;153.93;59.10;;;0.00;99.90;;;;;;5130554;28;20457;-51
2021/12/10 08:19:12;;;;;;;177.60;59.80;;;0.10;99.90;;;;;;5135130;28;20194;-53
2021/12/10 08:21:43;;;;;;;188.37;62.43;;;0.10;99.90;;;;;;5136834;28;20429;-54
2021/12/10 08:24:14;;;;;;;200.97;62.80;;;0.10;99.90;;;;;;5133753;28;20426;-52
2021/12/10 08:26:45;;;;;;;175.40;58.37;;;0.10;99.90;;;;;;5136235;28;20460;-51
2021/12/10 08:29:19;;;;;;;169.70;60.20;;;0.10;99.90;;;;;;5136183;28;20285;-52
2021/12/10 08:31:50;;;;;;;161.57;59.47;;;0.10;99.90;;;;;;5130783;28;20706;-53
2021/12/10 08:34:21;;;;;;;169.00;60.60;;;0.10;99.90;;;;;;5137957;28;20473;-50
2021/12/10 08:36:52;;;;;;;179.47;61.07;;;0.10;99.90;;;;;;5132028;28;20641;-52
2021/12/10 08:39:23;;;;;;;181.93;62.33;;;0.10;99.90;;;;;;5140187;28;20751;-51
2021/12/10 08:41:56;;;;;;;156.93;58.87;;;0.20;99.90;;;;;;5133120;28;20193;-51
2021/12/10 08:44:27;;;;;;;159.67;57.07;;;0.20;99.90;;;;;;5138770;28;20441;-51
2021/12/10 08:46:59;;;;;;;164.53;58.20;;;0.20;99.90;;;;;;5135811;28;20462;-52
2021/12/10 08:49:29;;;;;;;151.87;56.90;;;0.20;99.90;;;;;;5152247;28;20433;-51
2021/12/10 08:52:00;;;;;;;149.60;59.47;;;0.20;99.90;;;;;;5132263;28;20430;-52
2021/12/10 08:54:32;;;;;;;162.47;60.60;;;0.20;99.90;;;;;;5149753;28;20250;-51
2021/12/10 08:57:04;;;;;;;160.73;59.97;;;0.10;99.90;;;;;;5137699;28;20576;-51
2021/12/10 08:59:36;;;;;;;165.80;61.37;;;0.20;99.90;;;;;;5129521;28;20437;-51
2021/12/10 09:02:12;;;;;;;171.00;63.00;;;0.20;99.90;;;;;;5135993;28;20431;-53
2021/12/10 09:04:46;;;;;;;187.23;63.30;;;0.20;99.90;;;;;;5136296;28;20434;-51
2021/12/10 09:07:18;;;;;;;161.33;58.37;;;0.20;99.90;;;;;;5136287;28;20474;-50
2021/12/10 09:09:52;;;;;;;164.00;59.83;;;0.20;99.90;;;;;;5137068;28;20443;-52
2021/12/10 09:12:25;;;;;;;174.43;60.67;;;0.20;99.90;;;;;;5137000;28;20980;-49
2021/12/10 09:14:57;;;;;;;153.70;54.70;;;0.20;99.90;;;;;;5122650;28;20449;-52
2021/12/10 09:17:30;;;;;;;173.17;60.87;;;0.20;99.90;;;;;;5133227;28;20950;-51
2021/12/10 09:20:06;;;;;;;159.03;57.00;;;0.20;99.90;;;;;;5129959;28;21971;-51
2021/12/10 09:22:37;;;;;;;153.13;56.30;;;0.30;99.90;;;;;;5134046;28;20801;-51
2021/12/10 09:25:08;;;;;;;170.43;61.40;;;0.30;99.90;;;;;;5148350;28;20429;-52
2021/12/10 09:27:39;;;;;;;168.97;58.17;;;0.30;99.90;;;;;;5130995;28;20201;-50
2021/12/10 09:30:13;;;;;;;159.30;63.40;;;0.20;99.90;;;;;;5135459;28;20437;-51
2021/12/10 09:32:45;;;;;;;154.00;57.83;;;0.20;99.90;;;;;;5135398;28;20429;-53
2021/12/10 09:35:19;;;;;;;162.57;59.20;;;0.20;99.90;;;;;;5129612;28;20461;-51
2021/12/10 09:37:50;;;;;;;182.47;63.00;;;0.30;99.90;;;;;;5131013;28;20958;-52
2021/12/10 09:40:25;;;;;;;171.83;59.57;;;0.30;99.90;;;;;;5128247;28;20489;-50
2021/12/10 09:42:56;;;;;;;163.73;62.03;;;0.30;99.90;;;;;;5135977;28;20180;-51
2021/12/10 09:45:29;;;;;;;182.47;64.77;;;0.40;99.90;;;;;;5133142;28;20893;-51
2021/12/10 09:48:04;;;;;;;154.63;58.50;;;0.40;99.90;;;;;;5132883;28;20761;-52
2021/12/10 09:50:41;;;;;;;153.27;57.80;;;0.40;99.90;;;;;;5136045;28;20487;-51
2021/12/10 09:53:12;;;;;;;158.70;56.47;;;0.40;99.90;;;;;;5134433;28;20894;-50
2021/12/10 09:55:46;;;;;;;188.83;63.20;;;0.40;99.90;;;;;;5134308;28;20503;-51
2021/12/10 09:58:17;;;;;;;184.23;60.43;;;0.30;99.90;;;;;;5137039;28;20431;-49
2021/12/10 10:00:53;;;;;;;164.97;58.10;;;0.30;99.90;;;;;;5136141;28;20436;-51
2021/12/10 10:03:34;;;;;;;177.83;60.47;;;0.40;99.90;;;;;;5131356;28;20446;-51
2021/12/10 10:06:07;;;;;;;176.87;64.20;;;0.40;99.90;;;;;;5133344;28;20464;-50
2021/12/10 10:08:38;;;;;;;168.30;57.77;;;0.40;99.90;;;;;;5130425;28;20463;-53
2021/12/10 10:11:25;;;;;;;185.90;63.03;;;0.40;99.90;;;;;;5133204;28;20449;-51
2021/12/10 10:13:56;;;;;;;162.73;59.07;;;0.40;99.90;;;;;;5128368;28;20545;-51
2021/12/10 10:16:32;;;;;;;172.57;58.93;;;0.50;99.90;;;;;;5132780;28;20460;-50
2021/12/10 10:19:05;;;;;;;158.23;55.90;;;0.50;99.90;;;;;;5138192;28;20940;-51
2021/12/10 10:21:40;;;;;;;162.77;56.17;;;0.60;99.90;;;;;;5133820;28;20967;-52
2021/12/10 10:24:11;;;;;;;155.33;55.93;;;0.60;99.90;;;;;;5132685;28;20774;-51
2021/12/10 10:26:52;;;;;;;161.13;58.90;;;0.70;99.90;;;;;;5132867;28;20796;-51
2021/12/10 10:29:26;;;;;;;161.53;57.23;;;0.70;99.90;;;;;;5133227;28;20458;-53
2021/12/10 10:32:07;;;;;;;139.77;54.37;;;0.80;99.90;;;;;;5135171;28;20448;-50
2021/12/10 10:34:46;;;;;;;147.07;56.67;;;0.80;99.90;;;;;;5130122;28;20445;-50
2021/12/10 10:37:17;;;;;;;153.60;55.57;;;0.80;99.90;;;;;;5130119;28;20505;-50
2021/12/10 10:39:48;;;;;;;167.83;53.57;;;0.90;99.90;;;;;;5135756;28;20452;-50
2021/12/10 10:42:24;;;;;;;143.20;50.87;;;1.10;99.90;;;;;;5135871;28;20425;-52
2021/12/10 10:44:59;;;;;;;135.90;50.70;;;1.20;99.90;;;;;;5139500;28;20944;-50
2021/12/10 10:47:30;;;;;;;149.73;53.23;;;1.20;99.90;;;;;;5152052;28;21073;-51
2021/12/10 10:50:11;;;;;;;139.27;50.47;;;1.30;99.90;;;;;;5151825;28;20444;-51
2021/12/10 10:52:47;;;;;;;137.03;51.33;;;1.20;99.90;;;;;;5138325;28;20913;-50
2021/12/10 10:55:20;;;;;;;127.00;48.87;;;1.30;99.90;;;;;;5139736;28;20984;-52
2021/12/10 10:57:54;;;;;;;128.60;50.33;;;1.30;99.90;;;;;;5149197;28;20433;-50
2021/12/10 11:00:43;;;;;;;138.87;51.37;;;1.30;99.90;;;;;;5140913;28;20451;-51
2021/12/10 11:03:18;;;;;;;139.93;50.57;;;1.30;99.90;;;;;;5139451;28;21177;-53
2021/12/10 11:05:53;;;;;;;120.77;49.87;;;1.30;99.90;;;;;;5136624;28;20880;-49
2021/12/10 11:08:28;;;;;;;124.90;48.53;;;1.20;99.90;;;;;;5135475;28;20465;-51
2021/12/10 11:11:15;;;;;;;137.90;52.17;;;1.20;99.90;;;;;;5135159;28;20428;-52
2021/12/10 11:13:50;;;;;;;129.60;53.40;;;1.20;99.90;;;;;;5127255;28;20437;-52
2021/12/10 11:16:25;;;;;;;135.17;50.30;;;1.20;99.90;;;;;;5151574;28;20457;-52
2021/12/10 11:19:24;;;;;;;115.90;47.80;;;1.20;99.90;;;;;;5138410;28;20479;-50
2021/12/10 11:21:57;;;;;;;135.27;52.93;;;1.20;99.90;;;;;;5132624;28;20455;-50
2021/12/10 11:24:44;;;;;;;147.00;55.47;;;1.10;99.90;;;;;;5138338;28;20432;-52
2021/12/10 11:27:19;;;;;;;133.97;52.67;;;1.20;99.90;;;;;;5136872;28;20475;-50
2021/12/10 11:29:53;;;;;;;139.37;51.30;;;1.20;99.90;;;;;;5141933;28;20439;-50
2021/12/10 11:32:37;;;;;;;131.07;50.33;;;1.20;99.90;;;;;;5137879;28;20428;-49
2021/12/10 11:35:18;;;;;;;143.30;53.73;;;1.20;99.90;;;;;;5139608;28;20443;-51
2021/12/10 11:38:01;;;;;;;139.60;54.37;;;1.40;99.90;;;;;;5136923;28;20449;-52
2021/12/10 11:41:01;;;;;;;129.43;47.70;;;1.40;99.90;;;;;;5138716;28;20437;-51
2021/12/10 11:46:45;;;;;;;135.13;47.43;;;1.40;99.90;;;;;;5141155;28;20495;-51
2021/12/10 11:49:15;;;;;;;133.77;46.10;;;1.30;99.90;;;;;;5136471;28;20468;-51
2021/12/10 11:52:04;;;;;;;114.77;44.77;;;1.40;99.90;;;;;;5136675;28;20448;-51
2021/12/10 11:54:39;;;;;;;120.90;47.23;;;1.30;99.90;;;;;;5139498;28;20284;-50
2021/12/10 11:57:24;;;;;;;127.03;47.27;;;1.20;99.90;;;;;;5136861;28;21033;-50
2021/12/10 12:00:15;;;;;;;134.97;47.03;;;1.20;99.90;;;;;;5153794;28;20439;-50
2021/12/10 12:02:51;;;;;;;123.57;47.10;;;1.30;99.90;;;;;;5139219;28;20441;-52
2021/12/10 12:05:27;;;;;;;139.17;50.27;;;1.20;99.90;;;;;;5137607;28;20469;-51
2021/12/10 12:08:02;;;;;;;137.37;49.33;;;1.10;99.90;;;;;;5140891;28;20468;-55
2021/12/10 12:10:40;;;;;;;145.03;50.37;;;1.10;99.90;;;;;;5149414;28;20448;-51
2021/12/10 12:16:01;;;;;;;137.23;48.80;;;1.10;99.90;;;;;;5133808;28;20456;-50
2021/12/10 12:18:41;;;;;;;134.40;46.27;;;1.20;99.90;;;;;;5139750;28;20436;-51
2021/12/10 12:27:14;;;;;;;116.87;46.03;;;1.10;99.90;;;;;;5138565;28;20915;-53
2021/12/10 12:29:47;;;;;;;134.30;47.13;;;1.10;99.90;;;;;;5136389;28;20436;-52
2021/12/10 12:32:31;;;;;;;136.73;49.03;;;1.10;99.90;;;;;;5134810;28;20850;-52
2021/12/10 12:35:18;;;;;;;141.10;49.50;;;1.10;99.90;;;;;;5138860;28;20435;-53
2021/12/10 12:37:49;;;;;;;164.83;53.27;;;1.00;99.90;;;;;;5137767;28;20466;-52
2021/12/10 12:40:20;;;;;;;154.40;50.00;;;1.00;99.90;;;;;;5135211;28;20434;-55
2021/12/10 12:42:50;;;;;;;137.00;49.50;;;1.00;99.90;;;;;;5137495;28;20284;-53
2021/12/10 12:45:24;;;;;;;147.03;51.67;;;1.10;99.90;;;;;;5140208;28;20272;-53
2021/12/10 12:47:55;;;;;;;158.53;52.40;;;0.90;99.90;;;;;;5149915;28;20223;-51
2021/12/10 12:50:29;;;;;;;152.90;48.10;;;1.00;99.90;;;;;;5137604;28;21142;-50
2021/12/10 12:53:15;;;;;;;157.17;50.13;;;1.00;99.90;;;;;;5134940;28;20944;-51
2021/12/10 12:55:45;;;;;;;174.27;53.00;;;0.90;99.90;;;;;;5122212;28;20457;-51
2021/12/10 12:58:31;;;;;;;173.77;54.10;;;0.90;99.90;;;;;;5138877;28;20448;-51
2021/12/10 13:01:21;;;;;;;179.87;55.37;;;0.90;99.90;;;;;;5136626;28;20926;-52
2021/12/10 13:03:54;;;;;;;189.00;56.30;;;0.90;99.90;;;;;;5137596;28;20497;-50
2021/12/10 13:06:31;;;;;;;211.90;57.73;;;0.80;99.90;;;;;;5148484;28;20807;-52
2021/12/10 13:09:09;;;;;;;192.80;58.33;;;0.80;99.90;;;;;;5130752;28;20553;-53
2021/12/10 13:12:01;;;;;;;223.80;58.33;;;0.80;99.90;;;;;;5135041;28;21300;-51
2021/12/10 13:14:59;;;;;;;241.30;62.80;;;0.70;99.90;;;;;;5134579;28;20438;-50
2021/12/10 13:18:07;;;;;;;275.80;63.93;;;0.70;99.90;;;;;;5135903;28;20565;-51